sensor_id;sensor_type;location;lat;lon;timestamp;P1;durP1;ratioP1;P2;durP2;ratioP2
78875;SDS011;68253;52.506;5.486;2023-03-16T00:01:19;1.77;;;0.73;;
78875;SDS011;68253;52.506;5.486;2023-03-16T00:03:46;2.72;;;0.90;;
78875;SDS011;68253;52.506;5.486;2023-03-16T00:06:12;3.33;;;0.80;;
78875;SDS011;68253;52.506;5.486;2023-03-16T00:08:39;2.10;;;0.63;;
78875;SDS011;68253;52.506;5.486;2023-03-16T00:11:05;3.25;;;0.68;;
78875;SDS011;68253;52.506;5.486;2023-03-16T00:13:31;2.30;;;0.77;;
78875;SDS011;68253;52.506;5.486;2023-03-16T00:15:58;3.25;;;0.80;;
78875;SDS011;68253;52.506;5.486;2023-03-16T00:18:27;3.28;;;0.90;;
78875;SDS011;68253;52.506;5.486;2023-03-16T00:20:54;2.20;;;0.70;;
78875;SDS011;68253;52.506;5.486;2023-03-16T00:23:26;1.88;;;0.63;;
78875;SDS011;68253;52.506;5.486;2023-03-16T00:25:57;4.65;;;0.90;;
78875;SDS011;68253;52.506;5.486;2023-03-16T00:28:24;2.60;;;0.77;;
78875;SDS011;68253;52.506;5.486;2023-03-16T00:30:52;3.08;;;0.80;;
78875;SDS011;68253;52.506;5.486;2023-03-16T00:33:26;3.75;;;0.90;;
78875;SDS011;68253;52.506;5.486;2023-03-16T00:35:53;2.95;;;0.80;;
78875;SDS011;68253;52.506;5.486;2023-03-16T00:38:27;4.10;;;0.73;;
78875;SDS011;68253;52.506;5.486;2023-03-16T00:40:55;3.90;;;0.73;;
78875;SDS011;68253;52.506;5.486;2023-03-16T00:43:23;1.85;;;0.52;;
78875;SDS011;68253;52.506;5.486;2023-03-16T00:45:56;2.13;;;0.60;;
78875;SDS011;68253;52.506;5.486;2023-03-16T00:48:26;2.20;;;0.73;;
78875;SDS011;68253;52.506;5.486;2023-03-16T00:50:52;2.75;;;0.70;;
78875;SDS011;68253;52.506;5.486;2023-03-16T00:53:20;3.42;;;0.90;;
78875;SDS011;68253;52.506;5.486;2023-03-16T00:55:46;3.70;;;0.75;;
78875;SDS011;68253;52.506;5.486;2023-03-16T00:58:12;2.70;;;0.80;;
78875;SDS011;68253;52.506;5.486;2023-03-16T01:00:39;3.58;;;0.82;;
78875;SDS011;68253;52.506;5.486;2023-03-16T01:03:06;3.60;;;0.70;;
78875;SDS011;68253;52.506;5.486;2023-03-16T01:05:32;3.90;;;0.80;;
78875;SDS011;68253;52.506;5.486;2023-03-16T01:07:58;3.65;;;0.80;;
78875;SDS011;68253;52.506;5.486;2023-03-16T01:10:27;3.17;;;0.80;;
78875;SDS011;68253;52.506;5.486;2023-03-16T01:12:53;2.25;;;0.70;;
78875;SDS011;68253;52.506;5.486;2023-03-16T01:15:20;2.67;;;0.80;;
78875;SDS011;68253;52.506;5.486;2023-03-16T01:17:47;3.75;;;0.80;;
78875;SDS011;68253;52.506;5.486;2023-03-16T01:20:13;2.63;;;0.75;;
78875;SDS011;68253;52.506;5.486;2023-03-16T01:22:44;2.63;;;0.70;;
78875;SDS011;68253;52.506;5.486;2023-03-16T01:25:11;2.25;;;0.75;;
78875;SDS011;68253;52.506;5.486;2023-03-16T01:27:40;2.30;;;0.60;;
78875;SDS011;68253;52.506;5.486;2023-03-16T01:30:07;3.35;;;0.73;;
78875;SDS011;68253;52.506;5.486;2023-03-16T01:32:37;3.15;;;0.70;;
78875;SDS011;68253;52.506;5.486;2023-03-16T01:35:05;2.10;;;0.63;;
78875;SDS011;68253;52.506;5.486;2023-03-16T01:37:32;3.20;;;0.52;;
78875;SDS011;68253;52.506;5.486;2023-03-16T01:40:07;2.90;;;0.63;;
78875;SDS011;68253;52.506;5.486;2023-03-16T01:43:09;2.90;;;0.75;;
78875;SDS011;68253;52.506;5.486;2023-03-16T01:48:21;2.42;;;0.60;;
78875;SDS011;68253;52.506;5.486;2023-03-16T01:53:18;3.15;;;0.70;;
78875;SDS011;68253;52.506;5.486;2023-03-16T01:55:46;2.22;;;0.60;;
78875;SDS011;68253;52.506;5.486;2023-03-16T01:58:14;2.53;;;0.70;;
78875;SDS011;68253;52.506;5.486;2023-03-16T02:00:40;2.28;;;0.70;;
78875;SDS011;68253;52.506;5.486;2023-03-16T02:03:18;3.60;;;0.80;;
78875;SDS011;68253;52.506;5.486;2023-03-16T02:05:55;2.28;;;0.75;;
78875;SDS011;68253;52.506;5.486;2023-03-16T02:08:31;2.47;;;0.80;;
78875;SDS011;68253;52.506;5.486;2023-03-16T02:10:58;3.72;;;0.80;;
78875;SDS011;68253;52.506;5.486;2023-03-16T02:13:36;3.17;;;0.70;;
78875;SDS011;68253;52.506;5.486;2023-03-16T02:16:04;1.20;;;0.55;;
78875;SDS011;68253;52.506;5.486;2023-03-16T02:18:31;2.33;;;0.70;;
78875;SDS011;68253;52.506;5.486;2023-03-16T02:23:53;3.33;;;0.70;;
78875;SDS011;68253;52.506;5.486;2023-03-16T02:31:35;2.85;;;0.80;;
78875;SDS011;68253;52.506;5.486;2023-03-16T02:34:02;2.90;;;0.80;;
78875;SDS011;68253;52.506;5.486;2023-03-16T02:36:28;2.92;;;0.75;;
78875;SDS011;68253;52.506;5.486;2023-03-16T02:38:56;2.65;;;0.65;;
78875;SDS011;68253;52.506;5.486;2023-03-16T02:41:23;2.53;;;0.70;;
78875;SDS011;68253;52.506;5.486;2023-03-16T02:44:00;2.08;;;0.70;;
78875;SDS011;68253;52.506;5.486;2023-03-16T02:46:34;1.48;;;0.50;;
78875;SDS011;68253;52.506;5.486;2023-03-16T02:49:04;2.45;;;0.70;;
78875;SDS011;68253;52.506;5.486;2023-03-16T02:51:38;2.83;;;0.88;;
78875;SDS011;68253;52.506;5.486;2023-03-16T02:54:04;2.58;;;0.70;;
78875;SDS011;68253;52.506;5.486;2023-03-16T02:56:33;1.30;;;0.57;;
78875;SDS011;68253;52.506;5.486;2023-03-16T02:58:59;2.20;;;0.55;;
78875;SDS011;68253;52.506;5.486;2023-03-16T03:01:26;2.97;;;0.80;;
78875;SDS011;68253;52.506;5.486;2023-03-16T03:03:53;2.40;;;0.68;;
78875;SDS011;68253;52.506;5.486;2023-03-16T03:06:19;2.25;;;0.70;;
78875;SDS011;68253;52.506;5.486;2023-03-16T03:08:45;3.53;;;0.80;;
78875;SDS011;68253;52.506;5.486;2023-03-16T03:11:12;2.72;;;0.73;;
78875;SDS011;68253;52.506;5.486;2023-03-16T03:13:38;1.50;;;0.60;;
78875;SDS011;68253;52.506;5.486;2023-03-16T03:16:09;1.73;;;0.70;;
78875;SDS011;68253;52.506;5.486;2023-03-16T03:18:35;2.72;;;0.70;;
78875;SDS011;68253;52.506;5.486;2023-03-16T03:21:01;1.23;;;0.60;;
78875;SDS011;68253;52.506;5.486;2023-03-16T03:23:27;3.53;;;0.80;;
78875;SDS011;68253;52.506;5.486;2023-03-16T03:25:57;1.95;;;0.63;;
78875;SDS011;68253;52.506;5.486;2023-03-16T03:28:24;2.17;;;0.60;;
78875;SDS011;68253;52.506;5.486;2023-03-16T03:30:51;2.67;;;0.70;;
78875;SDS011;68253;52.506;5.486;2023-03-16T03:33:17;3.22;;;0.88;;
78875;SDS011;68253;52.506;5.486;2023-03-16T03:35:44;2.20;;;0.55;;
78875;SDS011;68253;52.506;5.486;2023-03-16T03:38:10;2.28;;;0.60;;
78875;SDS011;68253;52.506;5.486;2023-03-16T03:40:36;3.72;;;0.70;;
78875;SDS011;68253;52.506;5.486;2023-03-16T03:43:03;1.95;;;0.65;;
78875;SDS011;68253;52.506;5.486;2023-03-16T03:45:35;2.10;;;0.60;;
78875;SDS011;68253;52.506;5.486;2023-03-16T03:48:02;3.42;;;0.65;;
78875;SDS011;68253;52.506;5.486;2023-03-16T03:50:28;2.58;;;0.63;;
78875;SDS011;68253;52.506;5.486;2023-03-16T03:55:33;2.65;;;0.70;;
78875;SDS011;68253;52.506;5.486;2023-03-16T03:58:00;1.65;;;0.70;;
78875;SDS011;68253;52.506;5.486;2023-03-16T04:00:26;1.80;;;0.50;;
78875;SDS011;68253;52.506;5.486;2023-03-16T04:02:52;3.88;;;0.70;;
78875;SDS011;68253;52.506;5.486;2023-03-16T04:05:28;1.92;;;0.50;;
78875;SDS011;68253;52.506;5.486;2023-03-16T04:07:55;2.45;;;0.70;;
78875;SDS011;68253;52.506;5.486;2023-03-16T04:10:22;2.60;;;0.70;;
78875;SDS011;68253;52.506;5.486;2023-03-16T04:12:50;1.88;;;0.70;;
78875;SDS011;68253;52.506;5.486;2023-03-16T04:15:17;1.63;;;0.60;;
78875;SDS011;68253;52.506;5.486;2023-03-16T04:18:03;2.38;;;0.70;;
78875;SDS011;68253;52.506;5.486;2023-03-16T04:20:30;2.10;;;0.85;;
78875;SDS011;68253;52.506;5.486;2023-03-16T04:22:56;2.03;;;0.60;;
78875;SDS011;68253;52.506;5.486;2023-03-16T04:25:23;2.25;;;0.60;;
78875;SDS011;68253;52.506;5.486;2023-03-16T04:27:58;2.00;;;0.57;;
78875;SDS011;68253;52.506;5.486;2023-03-16T04:30:27;1.42;;;0.52;;
78875;SDS011;68253;52.506;5.486;2023-03-16T04:33:03;2.33;;;0.60;;
78875;SDS011;68253;52.506;5.486;2023-03-16T04:35:29;1.90;;;0.60;;
78875;SDS011;68253;52.506;5.486;2023-03-16T04:37:56;2.63;;;0.63;;
78875;SDS011;68253;52.506;5.486;2023-03-16T04:40:30;2.50;;;0.60;;
78875;SDS011;68253;52.506;5.486;2023-03-16T04:43:04;2.42;;;0.77;;
78875;SDS011;68253;52.506;5.486;2023-03-16T04:45:32;4.43;;;0.80;;
78875;SDS011;68253;52.506;5.486;2023-03-16T04:47:59;1.80;;;0.63;;
78875;SDS011;68253;52.506;5.486;2023-03-16T04:50:25;1.85;;;0.63;;
78875;SDS011;68253;52.506;5.486;2023-03-16T04:52:53;1.80;;;0.60;;
78875;SDS011;68253;52.506;5.486;2023-03-16T04:55:20;2.20;;;0.65;;
78875;SDS011;68253;52.506;5.486;2023-03-16T04:57:47;1.98;;;0.52;;
78875;SDS011;68253;52.506;5.486;2023-03-16T05:00:14;3.10;;;0.65;;
78875;SDS011;68253;52.506;5.486;2023-03-16T05:02:50;2.38;;;0.70;;
78875;SDS011;68253;52.506;5.486;2023-03-16T05:05:17;1.92;;;0.70;;
78875;SDS011;68253;52.506;5.486;2023-03-16T05:07:43;1.90;;;0.60;;
78875;SDS011;68253;52.506;5.486;2023-03-16T05:10:11;3.72;;;0.73;;
78875;SDS011;68253;52.506;5.486;2023-03-16T05:12:39;3.05;;;0.70;;
78875;SDS011;68253;52.506;5.486;2023-03-16T05:15:06;2.40;;;0.60;;
78875;SDS011;68253;52.506;5.486;2023-03-16T05:17:36;2.28;;;0.77;;
78875;SDS011;68253;52.506;5.486;2023-03-16T05:20:03;2.42;;;0.70;;
78875;SDS011;68253;52.506;5.486;2023-03-16T05:22:34;1.77;;;0.50;;
78875;SDS011;68253;52.506;5.486;2023-03-16T05:25:26;2.40;;;0.68;;
78875;SDS011;68253;52.506;5.486;2023-03-16T05:27:55;1.52;;;0.50;;
78875;SDS011;68253;52.506;5.486;2023-03-16T05:30:28;2.53;;;0.70;;
78875;SDS011;68253;52.506;5.486;2023-03-16T05:32:58;3.00;;;0.80;;
78875;SDS011;68253;52.506;5.486;2023-03-16T05:35:26;2.90;;;0.68;;
78875;SDS011;68253;52.506;5.486;2023-03-16T05:37:56;1.73;;;0.60;;
78875;SDS011;68253;52.506;5.486;2023-03-16T05:40:23;1.90;;;0.68;;
78875;SDS011;68253;52.506;5.486;2023-03-16T05:42:58;1.73;;;0.65;;
78875;SDS011;68253;52.506;5.486;2023-03-16T05:45:26;1.65;;;0.65;;
78875;SDS011;68253;52.506;5.486;2023-03-16T05:48:01;2.38;;;0.60;;
78875;SDS011;68253;52.506;5.486;2023-03-16T05:50:30;2.03;;;0.70;;
78875;SDS011;68253;52.506;5.486;2023-03-16T05:52:56;2.78;;;0.70;;
78875;SDS011;68253;52.506;5.486;2023-03-16T05:55:23;0.75;;;0.43;;
78875;SDS011;68253;52.506;5.486;2023-03-16T05:57:54;1.95;;;0.70;;
78875;SDS011;68253;52.506;5.486;2023-03-16T06:00:21;1.33;;;0.50;;
78875;SDS011;68253;52.506;5.486;2023-03-16T06:02:57;1.85;;;0.70;;
78875;SDS011;68253;52.506;5.486;2023-03-16T06:05:28;2.58;;;0.50;;
78875;SDS011;68253;52.506;5.486;2023-03-16T06:07:57;1.98;;;0.50;;
78875;SDS011;68253;52.506;5.486;2023-03-16T06:10:24;3.30;;;0.65;;
78875;SDS011;68253;52.506;5.486;2023-03-16T06:12:51;1.55;;;0.50;;
78875;SDS011;68253;52.506;5.486;2023-03-16T06:15:19;1.35;;;0.43;;
78875;SDS011;68253;52.506;5.486;2023-03-16T06:17:49;1.08;;;0.50;;
78875;SDS011;68253;52.506;5.486;2023-03-16T06:20:16;1.33;;;0.50;;
78875;SDS011;68253;52.506;5.486;2023-03-16T06:22:43;0.80;;;0.47;;
78875;SDS011;68253;52.506;5.486;2023-03-16T06:25:11;1.13;;;0.50;;
78875;SDS011;68253;52.506;5.486;2023-03-16T06:27:40;1.52;;;0.65;;
78875;SDS011;68253;52.506;5.486;2023-03-16T06:30:10;1.63;;;0.50;;
78875;SDS011;68253;52.506;5.486;2023-03-16T06:32:37;1.48;;;0.50;;
78875;SDS011;68253;52.506;5.486;2023-03-16T06:35:07;1.98;;;0.50;;
78875;SDS011;68253;52.506;5.486;2023-03-16T06:37:34;1.88;;;0.60;;
78875;SDS011;68253;52.506;5.486;2023-03-16T06:40:09;2.17;;;0.52;;
78875;SDS011;68253;52.506;5.486;2023-03-16T06:42:36;2.13;;;0.60;;
78875;SDS011;68253;52.506;5.486;2023-03-16T06:45:02;1.70;;;0.57;;
78875;SDS011;68253;52.506;5.486;2023-03-16T06:47:29;1.52;;;0.70;;
78875;SDS011;68253;52.506;5.486;2023-03-16T06:49:56;1.17;;;0.60;;
78875;SDS011;68253;52.506;5.486;2023-03-16T06:52:24;2.55;;;0.60;;
78875;SDS011;68253;52.506;5.486;2023-03-16T06:54:50;1.73;;;0.60;;
78875;SDS011;68253;52.506;5.486;2023-03-16T06:57:18;1.98;;;0.50;;
78875;SDS011;68253;52.506;5.486;2023-03-16T06:59:44;1.25;;;0.47;;
78875;SDS011;68253;52.506;5.486;2023-03-16T07:02:11;1.65;;;0.60;;
78875;SDS011;68253;52.506;5.486;2023-03-16T07:04:38;1.65;;;0.50;;
78875;SDS011;68253;52.506;5.486;2023-03-16T07:07:06;1.02;;;0.45;;
78875;SDS011;68253;52.506;5.486;2023-03-16T07:09:33;1.80;;;0.60;;
78875;SDS011;68253;52.506;5.486;2023-03-16T07:11:59;2.10;;;0.57;;
78875;SDS011;68253;52.506;5.486;2023-03-16T07:14:25;0.93;;;0.40;;
78875;SDS011;68253;52.506;5.486;2023-03-16T07:16:53;2.20;;;0.73;;
78875;SDS011;68253;52.506;5.486;2023-03-16T07:19:20;1.42;;;0.57;;
78875;SDS011;68253;52.506;5.486;2023-03-16T07:21:47;1.67;;;0.40;;
78875;SDS011;68253;52.506;5.486;2023-03-16T07:24:17;2.50;;;0.60;;
78875;SDS011;68253;52.506;5.486;2023-03-16T07:26:44;1.65;;;0.82;;
78875;SDS011;68253;52.506;5.486;2023-03-16T07:29:17;1.55;;;0.60;;
78875;SDS011;68253;52.506;5.486;2023-03-16T07:31:43;2.15;;;0.50;;
78875;SDS011;68253;52.506;5.486;2023-03-16T07:34:15;2.47;;;0.60;;
78875;SDS011;68253;52.506;5.486;2023-03-16T07:36:46;2.17;;;0.50;;
78875;SDS011;68253;52.506;5.486;2023-03-16T07:39:17;1.30;;;0.40;;
78875;SDS011;68253;52.506;5.486;2023-03-16T07:41:44;3.20;;;0.47;;
78875;SDS011;68253;52.506;5.486;2023-03-16T07:44:15;2.20;;;0.65;;
78875;SDS011;68253;52.506;5.486;2023-03-16T07:46:45;1.23;;;0.50;;
78875;SDS011;68253;52.506;5.486;2023-03-16T07:49:12;1.33;;;0.50;;
78875;SDS011;68253;52.506;5.486;2023-03-16T07:51:38;1.70;;;0.55;;
78875;SDS011;68253;52.506;5.486;2023-03-16T07:54:06;1.30;;;0.50;;
78875;SDS011;68253;52.506;5.486;2023-03-16T07:56:34;2.13;;;0.60;;
78875;SDS011;68253;52.506;5.486;2023-03-16T07:59:02;1.27;;;0.40;;
78875;SDS011;68253;52.506;5.486;2023-03-16T08:01:29;1.05;;;0.50;;
78875;SDS011;68253;52.506;5.486;2023-03-16T08:03:55;1.10;;;0.47;;
78875;SDS011;68253;52.506;5.486;2023-03-16T08:06:22;3.22;;;0.70;;
78875;SDS011;68253;52.506;5.486;2023-03-16T08:08:50;2.28;;;0.60;;
78875;SDS011;68253;52.506;5.486;2023-03-16T08:11:25;1.58;;;0.60;;
78875;SDS011;68253;52.506;5.486;2023-03-16T08:13:58;1.50;;;0.60;;
78875;SDS011;68253;52.506;5.486;2023-03-16T08:16:32;1.63;;;0.50;;
78875;SDS011;68253;52.506;5.486;2023-03-16T08:18:58;2.17;;;0.47;;
78875;SDS011;68253;52.506;5.486;2023-03-16T08:21:26;3.40;;;0.50;;
78875;SDS011;68253;52.506;5.486;2023-03-16T08:23:53;1.25;;;0.47;;
78875;SDS011;68253;52.506;5.486;2023-03-16T08:26:19;2.33;;;0.60;;
78875;SDS011;68253;52.506;5.486;2023-03-16T08:28:49;2.30;;;0.40;;
78875;SDS011;68253;52.506;5.486;2023-03-16T08:31:17;1.50;;;0.40;;
78875;SDS011;68253;52.506;5.486;2023-03-16T08:34:02;1.42;;;0.35;;
78875;SDS011;68253;52.506;5.486;2023-03-16T08:36:30;1.27;;;0.50;;
78875;SDS011;68253;52.506;5.486;2023-03-16T08:38:58;1.27;;;0.50;;
78875;SDS011;68253;52.506;5.486;2023-03-16T08:41:25;1.00;;;0.32;;
78875;SDS011;68253;52.506;5.486;2023-03-16T08:43:55;1.75;;;0.57;;
78875;SDS011;68253;52.506;5.486;2023-03-16T08:46:22;1.40;;;0.32;;
78875;SDS011;68253;52.506;5.486;2023-03-16T08:48:54;1.92;;;0.50;;
78875;SDS011;68253;52.506;5.486;2023-03-16T08:51:24;1.45;;;0.40;;
78875;SDS011;68253;52.506;5.486;2023-03-16T08:53:51;1.40;;;0.40;;
78875;SDS011;68253;52.506;5.486;2023-03-16T08:56:18;0.95;;;0.40;;
78875;SDS011;68253;52.506;5.486;2023-03-16T08:58:44;0.47;;;0.25;;
78875;SDS011;68253;52.506;5.486;2023-03-16T09:01:11;1.30;;;0.40;;
78875;SDS011;68253;52.506;5.486;2023-03-16T09:03:39;0.75;;;0.40;;
78875;SDS011;68253;52.506;5.486;2023-03-16T09:06:08;1.90;;;0.30;;
78875;SDS011;68253;52.506;5.486;2023-03-16T09:08:35;1.67;;;0.50;;
78875;SDS011;68253;52.506;5.486;2023-03-16T09:11:04;1.58;;;0.50;;
78875;SDS011;68253;52.506;5.486;2023-03-16T09:13:37;1.20;;;0.50;;
78875;SDS011;68253;52.506;5.486;2023-03-16T09:16:04;1.33;;;0.28;;
78875;SDS011;68253;52.506;5.486;2023-03-16T09:18:31;1.98;;;0.45;;
78875;SDS011;68253;52.506;5.486;2023-03-16T09:21:00;1.40;;;0.45;;
78875;SDS011;68253;52.506;5.486;2023-03-16T09:23:28;1.60;;;0.40;;
78875;SDS011;68253;52.506;5.486;2023-03-16T09:25:56;2.58;;;0.43;;
78875;SDS011;68253;52.506;5.486;2023-03-16T09:28:24;2.47;;;0.40;;
78875;SDS011;68253;52.506;5.486;2023-03-16T09:30:55;1.55;;;0.40;;
78875;SDS011;68253;52.506;5.486;2023-03-16T09:33:23;1.00;;;0.40;;
78875;SDS011;68253;52.506;5.486;2023-03-16T09:35:51;1.23;;;0.40;;
78875;SDS011;68253;52.506;5.486;2023-03-16T09:38:17;0.80;;;0.28;;
78875;SDS011;68253;52.506;5.486;2023-03-16T09:40:44;1.80;;;0.40;;
78875;SDS011;68253;52.506;5.486;2023-03-16T09:48:31;1.60;;;0.40;;
78875;SDS011;68253;52.506;5.486;2023-03-16T09:51:00;2.38;;;0.40;;
78875;SDS011;68253;52.506;5.486;2023-03-16T09:53:30;1.58;;;0.30;;
78875;SDS011;68253;52.506;5.486;2023-03-16T09:56:01;1.90;;;0.45;;
78875;SDS011;68253;52.506;5.486;2023-03-16T09:58:34;0.98;;;0.32;;
78875;SDS011;68253;52.506;5.486;2023-03-16T10:06:13;1.55;;;0.30;;
78875;SDS011;68253;52.506;5.486;2023-03-16T10:11:27;1.02;;;0.32;;
78875;SDS011;68253;52.506;5.486;2023-03-16T10:16:54;1.58;;;0.40;;
78875;SDS011;68253;52.506;5.486;2023-03-16T10:19:43;1.25;;;0.40;;
78875;SDS011;68253;52.506;5.486;2023-03-16T10:22:30;1.40;;;0.43;;
78875;SDS011;68253;52.506;5.486;2023-03-16T10:27:40;1.85;;;0.38;;
78875;SDS011;68253;52.506;5.486;2023-03-16T10:30:25;2.80;;;0.40;;
78875;SDS011;68253;52.506;5.486;2023-03-16T10:32:54;2.38;;;0.40;;
78875;SDS011;68253;52.506;5.486;2023-03-16T10:35:30;2.40;;;0.40;;
78875;SDS011;68253;52.506;5.486;2023-03-16T10:37:59;1.65;;;0.30;;
78875;SDS011;68253;52.506;5.486;2023-03-16T10:40:26;1.50;;;0.50;;
78875;SDS011;68253;52.506;5.486;2023-03-16T10:43:03;3.97;;;0.40;;
78875;SDS011;68253;52.506;5.486;2023-03-16T10:45:37;0.65;;;0.30;;
78875;SDS011;68253;52.506;5.486;2023-03-16T10:48:07;1.30;;;0.30;;
78875;SDS011;68253;52.506;5.486;2023-03-16T10:50:42;1.33;;;0.30;;
78875;SDS011;68253;52.506;5.486;2023-03-16T10:53:14;1.65;;;0.45;;
78875;SDS011;68253;52.506;5.486;2023-03-16T10:55:43;1.63;;;0.40;;
78875;SDS011;68253;52.506;5.486;2023-03-16T10:58:09;1.90;;;0.45;;
78875;SDS011;68253;52.506;5.486;2023-03-16T11:00:37;3.33;;;0.40;;
78875;SDS011;68253;52.506;5.486;2023-03-16T11:03:18;1.60;;;0.30;;
78875;SDS011;68253;52.506;5.486;2023-03-16T11:06:06;1.08;;;0.40;;
78875;SDS011;68253;52.506;5.486;2023-03-16T11:08:42;1.10;;;0.30;;
78875;SDS011;68253;52.506;5.486;2023-03-16T11:11:17;2.47;;;0.40;;
78875;SDS011;68253;52.506;5.486;2023-03-16T11:13:54;0.95;;;0.32;;
78875;SDS011;68253;52.506;5.486;2023-03-16T11:16:30;1.30;;;0.32;;
78875;SDS011;68253;52.506;5.486;2023-03-16T11:19:24;0.98;;;0.45;;
78875;SDS011;68253;52.506;5.486;2023-03-16T11:24:44;0.90;;;0.40;;
78875;SDS011;68253;52.506;5.486;2023-03-16T11:30:17;0.70;;;0.30;;
78875;SDS011;68253;52.506;5.486;2023-03-16T11:32:50;0.73;;;0.30;;
78875;SDS011;68253;52.506;5.486;2023-03-16T11:35:19;1.33;;;0.60;;
78875;SDS011;68253;52.506;5.486;2023-03-16T11:37:56;1.02;;;0.40;;
78875;SDS011;68253;52.506;5.486;2023-03-16T11:49:01;0.77;;;0.40;;
78875;SDS011;68253;52.506;5.486;2023-03-16T11:52:15;1.27;;;0.40;;
78875;SDS011;68253;52.506;5.486;2023-03-16T11:55:16;2.47;;;0.45;;
78875;SDS011;68253;52.506;5.486;2023-03-16T11:58:02;1.42;;;0.40;;
78875;SDS011;68253;52.506;5.486;2023-03-16T12:00:37;2.03;;;0.30;;
78875;SDS011;68253;52.506;5.486;2023-03-16T12:08:50;2.80;;;0.50;;
78875;SDS011;68253;52.506;5.486;2023-03-16T12:11:42;2.05;;;0.50;;
78875;SDS011;68253;52.506;5.486;2023-03-16T12:14:28;1.58;;;0.22;;
78875;SDS011;68253;52.506;5.486;2023-03-16T12:17:06;1.88;;;0.40;;
78875;SDS011;68253;52.506;5.486;2023-03-16T12:19:52;0.70;;;0.30;;
78875;SDS011;68253;52.506;5.486;2023-03-16T12:22:42;2.08;;;0.50;;
78875;SDS011;68253;52.506;5.486;2023-03-16T12:25:18;0.88;;;0.22;;
78875;SDS011;68253;52.506;5.486;2023-03-16T12:27:51;1.85;;;0.40;;
78875;SDS011;68253;52.506;5.486;2023-03-16T12:33:03;1.98;;;0.47;;
78875;SDS011;68253;52.506;5.486;2023-03-16T12:38:36;1.42;;;0.43;;
78875;SDS011;68253;52.506;5.486;2023-03-16T12:44:18;2.97;;;0.50;;
78875;SDS011;68253;52.506;5.486;2023-03-16T12:47:02;3.10;;;0.60;;
78875;SDS011;68253;52.506;5.486;2023-03-16T12:49:31;2.95;;;0.50;;
78875;SDS011;68253;52.506;5.486;2023-03-16T12:52:00;3.00;;;0.60;;
78875;SDS011;68253;52.506;5.486;2023-03-16T12:54:28;3.00;;;0.70;;
78875;SDS011;68253;52.506;5.486;2023-03-16T12:57:04;1.92;;;0.50;;
78875;SDS011;68253;52.506;5.486;2023-03-16T12:59:37;2.15;;;0.50;;
78875;SDS011;68253;52.506;5.486;2023-03-16T13:02:10;6.13;;;0.80;;
78875;SDS011;68253;52.506;5.486;2023-03-16T13:04:41;1.58;;;0.38;;
78875;SDS011;68253;52.506;5.486;2023-03-16T13:07:21;4.20;;;0.60;;
78875;SDS011;68253;52.506;5.486;2023-03-16T13:09:53;2.05;;;0.60;;
78875;SDS011;68253;52.506;5.486;2023-03-16T13:12:27;3.25;;;0.70;;
78875;SDS011;68253;52.506;5.486;2023-03-16T13:14:57;3.25;;;0.60;;
78875;SDS011;68253;52.506;5.486;2023-03-16T13:17:24;1.25;;;0.43;;
78875;SDS011;68253;52.506;5.486;2023-03-16T13:20:04;2.28;;;0.60;;
78875;SDS011;68253;52.506;5.486;2023-03-16T13:22:42;2.90;;;0.47;;
78875;SDS011;68253;52.506;5.486;2023-03-16T13:27:51;3.28;;;0.50;;
78875;SDS011;68253;52.506;5.486;2023-03-16T13:30:29;1.15;;;0.43;;
78875;SDS011;68253;52.506;5.486;2023-03-16T13:35:44;2.75;;;0.52;;
78875;SDS011;68253;52.506;5.486;2023-03-16T13:38:15;3.40;;;0.45;;
78875;SDS011;68253;52.506;5.486;2023-03-16T13:40:46;2.90;;;0.43;;
78875;SDS011;68253;52.506;5.486;2023-03-16T13:43:16;2.13;;;0.40;;
78875;SDS011;68253;52.506;5.486;2023-03-16T13:45:43;1.90;;;0.30;;
78875;SDS011;68253;52.506;5.486;2023-03-16T13:48:13;2.33;;;0.47;;
78875;SDS011;68253;52.506;5.486;2023-03-16T13:50:41;3.28;;;0.60;;
78875;SDS011;68253;52.506;5.486;2023-03-16T13:53:30;1.58;;;0.40;;
78875;SDS011;68253;52.506;5.486;2023-03-16T13:55:58;1.80;;;0.65;;
78875;SDS011;68253;52.506;5.486;2023-03-16T13:58:33;3.35;;;0.70;;
78875;SDS011;68253;52.506;5.486;2023-03-16T14:01:03;3.72;;;0.50;;
78875;SDS011;68253;52.506;5.486;2023-03-16T14:03:37;2.33;;;0.38;;
78875;SDS011;68253;52.506;5.486;2023-03-16T14:06:06;2.67;;;0.50;;
78875;SDS011;68253;52.506;5.486;2023-03-16T14:08:56;1.92;;;0.40;;
78875;SDS011;68253;52.506;5.486;2023-03-16T14:11:26;4.07;;;0.50;;
78875;SDS011;68253;52.506;5.486;2023-03-16T14:13:53;2.13;;;0.50;;
78875;SDS011;68253;52.506;5.486;2023-03-16T14:16:21;3.50;;;0.50;;
78875;SDS011;68253;52.506;5.486;2023-03-16T14:21:35;2.47;;;0.50;;
78875;SDS011;68253;52.506;5.486;2023-03-16T14:24:03;2.58;;;0.30;;
78875;SDS011;68253;52.506;5.486;2023-03-16T14:26:40;1.83;;;0.40;;
78875;SDS011;68253;52.506;5.486;2023-03-16T14:29:28;1.02;;;0.50;;
78875;SDS011;68253;52.506;5.486;2023-03-16T14:31:56;3.42;;;0.60;;
78875;SDS011;68253;52.506;5.486;2023-03-16T14:34:29;4.22;;;0.70;;
78875;SDS011;68253;52.506;5.486;2023-03-16T14:37:13;3.50;;;0.40;;
78875;SDS011;68253;52.506;5.486;2023-03-16T14:39:42;2.28;;;0.50;;
78875;SDS011;68253;52.506;5.486;2023-03-16T14:42:17;2.17;;;0.50;;
78875;SDS011;68253;52.506;5.486;2023-03-16T14:44:57;2.50;;;0.45;;
78875;SDS011;68253;52.506;5.486;2023-03-16T14:47:28;1.73;;;0.40;;
78875;SDS011;68253;52.506;5.486;2023-03-16T14:49:59;3.08;;;0.52;;
78875;SDS011;68253;52.506;5.486;2023-03-16T14:52:30;1.50;;;0.38;;
78875;SDS011;68253;52.506;5.486;2023-03-16T14:54:58;2.53;;;0.43;;
78875;SDS011;68253;52.506;5.486;2023-03-16T14:57:25;1.75;;;0.50;;
78875;SDS011;68253;52.506;5.486;2023-03-16T14:59:51;2.03;;;0.43;;
78875;SDS011;68253;52.506;5.486;2023-03-16T15:02:28;3.60;;;0.52;;
78875;SDS011;68253;52.506;5.486;2023-03-16T15:04:56;1.90;;;0.50;;
78875;SDS011;68253;52.506;5.486;2023-03-16T15:07:26;1.20;;;0.40;;
78875;SDS011;68253;52.506;5.486;2023-03-16T15:09:55;2.80;;;0.55;;
78875;SDS011;68253;52.506;5.486;2023-03-16T15:12:25;3.20;;;0.55;;
78875;SDS011;68253;52.506;5.486;2023-03-16T15:14:51;2.63;;;0.50;;
78875;SDS011;68253;52.506;5.486;2023-03-16T15:17:37;3.90;;;0.57;;
78875;SDS011;68253;52.506;5.486;2023-03-16T15:20:03;2.70;;;0.70;;
78875;SDS011;68253;52.506;5.486;2023-03-16T15:22:30;3.55;;;0.50;;
78875;SDS011;68253;52.506;5.486;2023-03-16T15:25:44;1.35;;;0.40;;
78875;SDS011;68253;52.506;5.486;2023-03-16T15:28:13;2.53;;;0.40;;
78875;SDS011;68253;52.506;5.486;2023-03-16T15:30:45;1.15;;;0.38;;
78875;SDS011;68253;52.506;5.486;2023-03-16T15:33:13;3.10;;;0.57;;
78875;SDS011;68253;52.506;5.486;2023-03-16T15:35:40;0.88;;;0.38;;
78875;SDS011;68253;52.506;5.486;2023-03-16T15:38:11;3.30;;;0.52;;
78875;SDS011;68253;52.506;5.486;2023-03-16T15:40:40;1.73;;;0.60;;
78875;SDS011;68253;52.506;5.486;2023-03-16T15:43:08;2.97;;;0.50;;
78875;SDS011;68253;52.506;5.486;2023-03-16T15:45:39;3.05;;;0.60;;
78875;SDS011;68253;52.506;5.486;2023-03-16T15:48:05;2.95;;;0.60;;
78875;SDS011;68253;52.506;5.486;2023-03-16T15:50:32;2.75;;;0.57;;
78875;SDS011;68253;52.506;5.486;2023-03-16T15:52:59;3.75;;;0.60;;
78875;SDS011;68253;52.506;5.486;2023-03-16T15:55:40;2.65;;;0.50;;
78875;SDS011;68253;52.506;5.486;2023-03-16T15:58:15;2.97;;;0.30;;
78875;SDS011;68253;52.506;5.486;2023-03-16T16:00:44;1.67;;;0.43;;
78875;SDS011;68253;52.506;5.486;2023-03-16T16:03:12;2.17;;;0.45;;
78875;SDS011;68253;52.506;5.486;2023-03-16T16:05:39;2.42;;;0.50;;
78875;SDS011;68253;52.506;5.486;2023-03-16T16:08:05;2.33;;;0.63;;
78875;SDS011;68253;52.506;5.486;2023-03-16T16:10:31;2.92;;;0.57;;
78875;SDS011;68253;52.506;5.486;2023-03-16T16:12:58;3.15;;;0.73;;
78875;SDS011;68253;52.506;5.486;2023-03-16T16:15:27;3.20;;;0.60;;
78875;SDS011;68253;52.506;5.486;2023-03-16T16:17:57;2.13;;;0.60;;
78875;SDS011;68253;52.506;5.486;2023-03-16T16:20:24;2.45;;;0.50;;